Time;durP1;ratioP1;P1;durP2;ratioP2;P2;SDS_P1;SDS_P2;PMS_P1;PMS_P2;Temp;Humidity;BMP_temperature;BMP_pressure;BME280_temperature;BME280_humidity;BME280_pressure;Samples;Min_cycle;Max_cycle;Signal;HPM_P1;HPM_P2
2024/01/01 00:49:29;;;;;;;154.48;79.55;;;;;;;4.75;81.65;99965.19;6253130;22;20035;-71
2024/01/01 00:54:30;;;;;;;151.50;83.78;;;;;;;4.60;82.13;99976.13;6274191;22;20003;-71
2024/01/01 00:56:57;;;;;;;153.25;78.00;;;;;;;4.57;82.40;99970.97;6296328;22;20028;-72
2024/01/01 01:02:05;;;;;;;131.77;73.60;;;;;;;4.66;81.57;99974.78;6184931;22;20034;-69
2024/01/01 01:04:32;;;;;;;113.20;57.63;;;;;;;4.63;81.92;99977.72;6229730;22;20043;-71
2024/01/01 01:18:07;;;;;;;80.38;45.63;;;;;;;4.51;82.72;99984.03;6147554;22;20307;-72
2024/01/01 01:20:34;;;;;;;87.10;47.58;;;;;;;4.53;82.31;99974.88;6300757;22;20024;-72
2024/01/01 01:25:36;;;;;;;84.95;45.97;;;;;;;4.58;82.20;99971.81;6169165;22;20015;-72
2024/01/01 01:54:31;;;;;;;52.47;26.90;;;;;;;4.48;82.18;99960.06;6162313;22;20066;31
2024/01/01 02:19:34;;;;;;;52.70;27.67;;;;;;;4.28;82.85;99950.81;6207961;23;20017;-72
2024/01/01 02:46:49;;;;;;;47.25;22.70;;;;;;;4.13;83.04;99947.47;6210441;22;21417;31
2024/01/01 02:49:15;;;;;;;40.15;20.85;;;;;;;4.06;83.51;99949.75;6166969;23;20037;-72
2024/01/01 02:51:43;;;;;;;42.60;21.45;;;;;;;4.17;83.11;99953.47;6201207;23;20025;-73
2024/01/01 02:54:10;;;;;;;47.35;21.38;;;;;;;4.18;83.03;99950.66;6204535;23;20029;-73
2024/01/01 02:56:37;;;;;;;38.30;20.48;;;;;;;4.09;83.29;99954.88;6204951;23;20025;-72
2024/01/01 02:59:04;;;;;;;41.38;19.63;;;;;;;4.07;83.11;99951.44;6206243;23;20053;-72
2024/01/01 03:01:31;;;;;;;42.28;18.08;;;;;;;4.09;82.66;99944.13;6204588;23;20055;-72
2024/01/01 03:03:58;;;;;;;42.00;17.92;;;;;;;4.08;82.72;99944.25;6175134;23;20025;-72
2024/01/01 03:06:25;;;;;;;36.13;15.98;;;;;;;4.14;82.10;99941.13;6174980;23;20028;-74
2024/01/01 03:08:51;;;;;;;40.03;16.33;;;;;;;4.13;82.46;99948.31;6200866;23;20025;-73
2024/01/01 03:11:18;;;;;;;28.05;14.23;;;;;;;4.13;82.25;99951.00;6202956;23;20029;-73
2024/01/01 03:13:45;;;;;;;33.58;15.05;;;;;;;4.17;81.65;99942.72;6201492;23;20017;-73
2024/01/01 03:16:13;;;;;;;32.63;14.80;;;;;;;4.18;81.86;99942.59;6201589;23;20096;-73
2024/01/01 03:18:40;;;;;;;35.20;15.18;;;;;;;4.17;81.84;99942.72;6200965;23;20021;-73
2024/01/01 03:21:07;;;;;;;51.00;17.10;;;;;;;4.13;82.18;99942.09;6202078;23;20029;-73
2024/01/01 03:23:33;;;;;;;33.55;15.02;;;;;;;4.06;82.14;99944.38;6202191;23;20031;-73
2024/01/01 03:26:00;;;;;;;38.50;15.57;;;;;;;4.04;82.64;99943.63;6203033;23;20029;-73
2024/01/01 03:28:27;;;;;;;31.83;16.10;;;;;;;4.08;82.15;99949.63;6204251;23;20102;-74
2024/01/01 03:30:53;;;;;;;29.10;14.70;;;;;;;4.17;81.81;99945.41;6205133;23;20052;-73
2024/01/01 03:33:20;;;;;;;36.53;16.80;;;;;;;4.17;81.63;99942.72;6206307;23;20025;-73
2024/01/01 03:41:03;;;;;;;38.50;16.02;;;;;;;4.23;81.37;99940.44;6221994;22;20030;-73
2024/01/01 03:43:31;;;;;;;31.23;15.25;;;;;;;4.26;80.88;99937.53;6299424;22;20023;-74
2024/01/01 03:45:57;;;;;;;33.92;15.10;;;;;;;4.24;80.95;99944.84;6295350;22;20027;-73
2024/01/01 03:48:24;;;;;;;31.05;14.93;;;;;;;4.14;81.39;99944.66;6294796;22;20024;-74
2024/01/01 03:50:50;;;;;;;40.50;16.58;;;;;;;4.12;82.03;99940.41;6295887;22;20050;-73
2024/01/01 03:53:20;;;;;;;40.60;16.00;;;;;;;4.11;81.12;99947.56;6296718;22;20050;-73
2024/01/01 04:30:45;;;;;;;38.17;19.25;;;;;;;4.04;81.34;99940.94;6263164;22;20030;-72
2024/01/01 05:44:03;;;;;;;43.25;18.00;;;;;;;4.38;80.30;99916.94;6242223;22;20094;-71
2024/01/01 05:46:31;;;;;;;33.63;17.25;;;;;;;4.46;79.88;99925.28;6297238;22;20027;-71
2024/01/01 05:59:45;;;;;;;36.25;17.25;;;;;;;4.18;84.12;99925.63;6255601;22;20192;-73
2024/01/01 06:02:14;;;;;;;39.35;18.00;;;;;;;4.10;83.83;99924.38;6297607;22;20058;-73
2024/01/01 06:04:41;;;;;;;35.45;18.05;;;;;;;4.17;83.75;99929.31;6288968;22;20039;-76
2024/01/01 06:07:07;;;;;;;46.38;19.35;;;;;;;4.21;84.11;99930.78;6276198;22;20020;-75
2024/01/01 06:09:34;;;;;;;39.55;20.67;;;;;;;4.26;83.26;99934.84;6277213;22;20016;-76
2024/01/01 06:12:01;;;;;;;43.88;21.77;;;;;;;4.17;83.66;99940.03;6278823;22;20045;-73
2024/01/01 06:14:28;;;;;;;45.88;20.48;;;;;;;4.20;83.85;99939.78;6280379;22;20023;-73
2024/01/01 06:16:54;;;;;;;39.67;19.48;;;;;;;4.21;83.08;99942.41;6280737;22;20031;-73
2024/01/01 06:19:21;;;;;;;39.83;17.90;;;;;;;4.28;83.38;99940.09;6277410;22;20020;-75
2024/01/01 06:21:48;;;;;;;33.63;16.95;;;;;;;4.19;83.56;99935.41;6277411;22;20108;-75
2024/01/01 06:24:15;;;;;;;32.97;16.83;;;;;;;4.17;83.71;99931.97;6276505;22;20453;-74
2024/01/01 06:26:41;;;;;;;37.22;16.63;;;;;;;4.20;83.28;99921.00;6276338;22;20630;-75
2024/01/01 06:29:08;;;;;;;32.00;15.30;;;;;;;4.24;83.26;99927.88;6274425;22;20028;-76
2024/01/01 06:31:35;;;;;;;31.77;15.70;;;;;;;4.24;83.22;99919.81;6275249;22;20019;-75
2024/01/01 06:34:02;;;;;;;32.83;13.98;;;;;;;4.25;83.05;99924.22;6276808;22;20028;-76
2024/01/01 06:36:30;;;;;;;26.70;12.52;;;;;;;4.26;82.87;99933.97;6279945;22;20023;-74
2024/01/01 06:55:08;;;;;;;26.55;11.13;;;;;;;4.35;82.33;99933.28;6246199;22;20026;-74
2024/01/01 07:05:59;;;;;;;20.60;9.07;;;;;;;4.39;81.68;99948.19;6208914;23;20035;-73
2024/01/01 07:08:26;;;;;;;19.63;10.80;;;;;;;4.38;82.05;99943.78;6208987;23;20025;-73
2024/01/01 07:10:53;;;;;;;19.73;9.18;;;;;;;4.44;81.62;99946.88;6207802;23;20033;-73
2024/01/01 07:13:19;;;;;;;18.08;9.73;;;;;;;4.41;81.65;99948.97;6205666;23;20036;-75
2024/01/01 07:15:47;;;;;;;24.73;9.90;;;;;;;4.46;81.55;99949.44;6202473;23;20361;-75
2024/01/01 07:18:16;;;;;;;16.40;8.20;;;;;;;4.44;81.59;99943.34;6190908;23;20348;-75
2024/01/01 07:20:46;;;;;;;20.00;9.43;;;;;;;4.54;81.13;99955.09;6190447;23;20416;-74
2024/01/01 07:23:13;;;;;;;26.77;9.32;;;;;;;4.43;81.44;99952.38;6188214;23;20035;-73
2024/01/01 07:25:40;;;;;;;22.25;8.63;;;;;;;4.46;81.19;99952.13;6192059;23;20072;-74
2024/01/01 07:28:07;;;;;;;18.73;9.15;;;;;;;4.54;80.80;99952.41;6203737;23;20075;-73
2024/01/01 07:30:35;;;;;;;15.95;7.85;;;;;;;4.54;80.63;99955.09;6193969;22;20087;-76
2024/01/01 07:33:03;;;;;;;18.20;7.63;;;;;;;4.53;80.88;99956.06;6267166;22;20058;-74
2024/01/01 07:35:30;;;;;;;17.33;8.50;;;;;;;4.58;80.78;99961.94;6281454;22;20024;-73
2024/01/01 08:11:16;;;;;;;20.38;7.05;;;;;;;4.96;78.60;99975.19;6239628;23;20047;-72
2024/01/01 08:13:45;;;;;;;15.05;7.53;;;;;;;5.06;78.72;99969.13;6220364;22;20042;-72
2024/01/01 08:16:12;;;;;;;15.55;7.60;;;;;;;5.24;77.72;99968.53;6247881;22;20022;-72
2024/01/01 08:27:15;;;;;;;15.73;6.07;;;;;;;5.14;78.19;99985.47;6188811;22;20042;31
2024/01/01 08:29:42;;;;;;;14.13;6.03;;;;;;;5.09;78.69;99988.53;6177575;23;20010;-73
2024/01/01 08:32:08;;;;;;;16.80;6.78;;;;;;;5.20;78.44;99985.88;6174448;23;20013;-71
2024/01/01 08:37:17;;;;;;;16.75;6.90;;;;;;;5.24;77.88;99987.34;6203597;22;20020;-73
2024/01/01 08:39:45;;;;;;;16.45;5.90;;;;;;;5.39;77.60;99984.44;6295028;22;20011;-74
2024/01/01 08:42:11;;;;;;;12.85;6.18;;;;;;;5.47;77.52;99982.84;6274253;22;20007;-71
2024/01/01 08:44:39;;;;;;;16.00;5.85;;;;;;;5.51;77.05;99984.34;6301174;22;20008;-70
2024/01/01 08:47:06;;;;;;;17.75;5.90;;;;;;;5.53;76.62;99986.91;6300641;22;20016;-70
2024/01/01 08:49:32;;;;;;;17.65;6.15;;;;;;;5.55;76.91;99980.41;6301441;22;20006;-70
2024/01/01 08:52:00;;;;;;;14.27;6.45;;;;;;;5.70;76.60;99989.09;6300523;22;20108;-70
2024/01/01 08:54:27;;;;;;;15.93;7.57;;;;;;;5.84;76.03;99988.84;6302187;22;20046;-70
2024/01/01 08:56:54;;;;;;;18.55;6.68;;;;;;;5.91;75.55;99991.91;6300952;22;20046;-72
2024/01/01 08:59:21;;;;;;;12.05;5.13;;;;;;;5.85;76.13;99987.84;6300425;22;20003;-72
2024/01/01 09:01:47;;;;;;;12.77;5.40;;;;;;;5.95;75.41;99993.34;6300375;22;20109;-71
2024/01/01 09:04:14;;;;;;;13.02;5.30;;;;;;;5.78;76.49;99997.41;6299704;22;20042;-72
2024/01/01 09:06:40;;;;;;;12.70;5.25;;;;;;;5.80;76.03;99995.47;6301009;22;20026;-72
2024/01/01 09:11:47;;;;;;;14.15;5.45;;;;;;;5.76;76.70;100001.19;6184685;22;20027;-71
2024/01/01 09:14:17;;;;;;;11.52;5.22;;;;;;;5.73;76.33;100002.31;6300758;22;20034;-72
2024/01/01 09:16:43;;;;;;;12.75;5.65;;;;;;;5.84;75.62;100005.00;6301361;22;20008;-71
2024/01/01 09:19:10;;;;;;;15.30;5.03;;;;;;;5.81;76.65;100007.94;6301045;22;20007;-71
2024/01/01 09:21:37;;;;;;;14.73;5.90;;;;;;;5.76;75.80;100009.28;6300884;22;20014;-71
2024/01/01 09:24:05;;;;;;;12.52;5.32;;;;;;;5.71;76.22;99998.88;6300353;22;20011;-71
2024/01/01 09:26:34;;;;;;;14.43;5.28;;;;;;;5.83;75.65;100005.97;6300836;22;20000;-71
2024/01/01 09:29:01;;;;;;;14.35;5.13;;;;;;;5.80;75.33;100016.13;6300457;22;20046;-72
2024/01/01 09:31:27;;;;;;;14.90;5.75;;;;;;;5.71;75.43;100006.09;6302121;22;20007;-72
2024/01/01 09:33:54;;;;;;;14.02;5.93;;;;;;;5.74;75.82;100005.84;6300985;22;20022;-71
2024/01/01 09:36:21;;;;;;;14.25;5.55;;;;;;;5.71;76.22;100004.28;6300422;22;20015;-71
2024/01/01 09:38:47;;;;;;;17.90;6.85;;;;;;;5.85;75.38;100006.69;6299854;22;20022;-72
2024/01/01 09:41:14;;;;;;;13.05;5.20;;;;;;;5.81;75.71;99999.88;6300839;22;20034;-71
2024/01/01 09:43:44;;;;;;;12.77;5.75;;;;;;;5.82;74.97;100004.25;6299850;22;20059;-71
2024/01/01 09:46:13;;;;;;;13.50;5.10;;;;;;;5.78;74.80;100010.84;6300196;22;20024;-72
2024/01/01 09:48:39;;;;;;;13.13;5.20;;;;;;;5.82;74.53;100011.47;6299837;22;20071;-72
2024/01/01 09:51:06;;;;;;;12.20;5.50;;;;;;;5.77;75.02;100014.53;6299030;22;20023;-72
2024/01/01 09:53:32;;;;;;;14.63;5.03;;;;;;;5.75;74.99;100008.41;6299200;22;20008;-72
2024/01/01 09:56:00;;;;;;;14.93;6.82;;;;;;;5.81;75.31;100018.72;6273947;22;20082;-71
2024/01/01 09:58:26;;;;;;;15.40;6.25;;;;;;;5.76;75.32;100009.28;6299369;22;20015;-72
2024/01/01 10:01:08;;;;;;;18.80;7.28;;;;;;;5.82;75.18;100006.97;6299488;22;20019;-72
2024/01/01 10:06:16;;;;;;;15.55;6.90;;;;;;;5.77;74.55;100001.06;6284133;22;20038;-71
2024/01/01 10:08:43;;;;;;;14.98;6.80;;;;;;;5.81;73.91;99996.31;6300150;22;20004;-71
2024/01/01 10:11:16;;;;;;;12.48;5.40;;;;;;;6.05;73.50;99994.31;6301179;22;20008;-71
2024/01/01 10:13:43;;;;;;;9.40;5.05;;;;;;;6.12;72.71;99986.59;6300182;22;20018;-71
2024/01/01 10:16:09;;;;;;;17.13;6.47;;;;;;;6.29;72.61;99991.47;6274396;22;20008;-71
2024/01/01 10:18:36;;;;;;;17.88;5.65;;;;;;;6.46;71.57;99989.25;6300152;22;20023;-71
2024/01/01 10:21:14;;;;;;;15.57;5.43;;;;;;;6.51;71.68;100000.47;6300263;22;20012;-71
2024/01/01 10:23:41;;;;;;;9.60;4.50;;;;;;;6.35;71.79;100006.25;6274261;22;20020;-71
2024/01/01 11:25:03;;;;;;;13.93;5.70;;;;;;;6.41;73.23;100001.22;6208994;23;20071;-71
2024/01/01 11:30:06;;;;;;;13.32;4.93;;;;;;;6.33;73.87;100009.09;6262597;22;19941;-70
2024/01/01 11:40:41;;;;;;;11.52;5.07;;;;;;;6.35;74.30;100007.16;6214406;22;19927;-71
2024/01/01 11:46:04;;;;;;;15.40;5.38;;;;;;;6.39;74.13;100000.50;6246789;22;20024;-72
2024/01/01 11:48:30;;;;;;;13.15;4.88;;;;;;;6.46;73.94;99997.31;6300040;22;20007;-72
2024/01/01 11:53:43;;;;;;;16.60;5.82;;;;;;;6.60;73.71;99995.16;6244378;22;20019;-72
2024/01/01 11:56:10;;;;;;;15.43;5.55;;;;;;;6.79;72.98;99977.47;6298876;22;20008;-71
2024/01/01 11:58:37;;;;;;;14.85;5.45;;;;;;;6.82;72.83;99982.63;6298814;22;20012;-71
2024/01/01 12:01:04;;;;;;;12.02;4.57;;;;;;;6.97;72.29;99983.97;6299093;22;20020;-71
2024/01/01 12:03:33;;;;;;;14.32;4.57;;;;;;;7.02;72.11;99986.31;6299623;22;19999;-71
2024/01/01 13:37:17;;;;;;;16.00;4.38;;;;;;;6.66;74.68;99966.88;6225581;22;20039;-72
2024/01/01 13:39:44;;;;;;;23.95;4.93;;;;;;;6.57;75.09;99976.56;6269741;22;20016;-71
2024/01/01 13:42:10;;;;;;;19.92;4.05;;;;;;;6.64;74.68;99971.53;6269477;22;20031;-71
2024/01/01 13:44:37;;;;;;;11.52;3.60;;;;;;;6.59;74.75;99976.44;6269128;22;20020;-72
2024/01/01 16:00:41;;;;;;;17.43;3.93;;;;;;;6.77;72.69;100063.84;6156104;22;21231;31
2024/01/01 16:03:09;;;;;;;18.25;3.50;;;;;;;6.80;72.08;100077.06;6205277;23;20016;-72
2024/01/01 16:05:35;;;;;;;24.55;6.05;;;;;;;6.87;72.03;100067.47;6208049;23;20064;-71
2024/01/01 16:08:02;;;;;;;16.65;3.33;;;;;;;6.82;72.14;100069.72;6208513;23;20025;-72
2024/01/01 16:13:04;;;;;;;12.65;2.95;;;;;;;6.72;72.83;100079.53;6255684;22;20015;-71
2024/01/01 16:15:34;;;;;;;17.60;3.28;;;;;;;6.74;73.17;100082.13;6275409;22;20015;-72
2024/01/01 16:18:01;;;;;;;15.93;3.22;;;;;;;6.72;72.83;100080.41;6300762;22;20039;-72
2024/01/01 16:20:27;;;;;;;14.77;2.90;;;;;;;6.69;73.43;100074.41;6299444;22;20019;-71
2024/01/01 16:22:54;;;;;;;15.63;3.47;;;;;;;6.52;74.77;100081.16;6299648;22;20012;-72
2024/01/01 16:25:20;;;;;;;15.93;2.95;;;;;;;6.68;73.93;100080.78;6297031;22;20007;-71
2024/01/01 16:27:47;;;;;;;17.05;3.95;;;;;;;6.69;73.69;100079.78;6299663;22;20015;-71
2024/01/01 16:30:14;;;;;;;12.88;2.53;;;;;;;6.63;74.28;100078.47;6297393;22;20071;-71
2024/01/01 16:32:41;;;;;;;19.55;5.00;;;;;;;6.49;75.05;100083.25;6299861;22;20018;-71
2024/01/01 16:35:07;;;;;;;29.40;9.55;;;;;;;6.42;75.30;100086.44;6296921;22;20004;-71
2024/01/01 16:37:34;;;;;;;18.95;7.80;;;;;;;6.27;76.36;100090.41;6299263;22;20065;-71
2024/01/01 16:40:03;;;;;;;17.42;4.40;;;;;;;6.38;75.86;100090.38;6301019;22;20007;-71
2024/01/01 16:42:30;;;;;;;12.25;3.33;;;;;;;6.33;76.23;100095.28;6301106;22;20058;-72
2024/01/01 16:44:56;;;;;;;16.38;3.92;;;;;;;6.25;76.69;100095.03;6298912;22;20078;-71
2024/01/01 16:47:23;;;;;;;15.52;3.17;;;;;;;6.24;76.96;100101.41;6298655;22;20015;-71
2024/01/01 16:49:51;;;;;;;15.20;3.17;;;;;;;6.31;76.99;100093.69;6299428;22;20018;-71
2024/01/01 16:52:32;;;;;;;;;;;;;;;6.38;76.52;100098.47;6242709;22;20037;-71
2024/01/01 16:55:02;;;;;;;13.43;2.85;;;;;;;6.49;76.42;100094.03;6300149;22;19914;-72
2024/01/01 16:57:31;;;;;;;15.45;3.55;;;;;;;6.34;76.98;100110.44;6274124;22;20012;-72
2024/01/01 17:00:00;;;;;;;15.20;3.38;;;;;;;6.04;78.28;100104.84;6299168;22;20048;-72
2024/01/01 17:02:26;;;;;;;17.30;3.95;;;;;;;6.31;77.69;100102.63;6298485;22;20043;-72
2024/01/01 17:04:53;;;;;;;18.50;3.42;;;;;;;6.17;78.44;100112.81;6299777;22;20011;-73
2024/01/01 17:07:20;;;;;;;13.10;3.28;;;;;;;6.35;77.73;100116.69;6296567;22;20071;-72
2024/01/01 17:09:48;;;;;;;17.83;3.30;;;;;;;6.23;78.22;100115.84;6299572;22;20011;-72
2024/01/01 17:25:44;;;;;;;20.92;5.07;;;;;;;6.39;78.18;100128.94;6282697;22;19938;-70
2024/01/01 17:28:11;;;;;;;49.30;23.88;;;;;;;6.36;78.49;100135.44;6299173;22;20038;-72
2024/01/01 17:30:37;;;;;;;28.15;12.48;;;;;;;6.40;78.25;100138.75;6274099;22;20011;-71
2024/01/01 17:33:04;;;;;;;20.80;7.28;;;;;;;6.40;78.51;100144.97;6299888;22;20030;-71
2024/01/01 17:35:34;;;;;;;20.25;5.30;;;;;;;6.42;78.64;100134.94;6301061;22;20008;-71
2024/01/01 17:38:01;;;;;;;15.23;4.10;;;;;;;6.33;79.75;100148.28;6298920;22;20004;-71
2024/01/01 17:43:07;;;;;;;19.02;4.22;;;;;;;6.08;81.54;100146.69;6265310;22;20046;-71
2024/01/01 17:45:34;;;;;;;15.00;3.92;;;;;;;6.19;81.92;100157.47;6264246;22;20035;-70
2024/01/01 17:48:00;;;;;;;17.65;3.50;;;;;;;6.31;81.37;100159.19;6270308;22;20012;-71
2024/01/01 17:50:27;;;;;;;14.30;3.50;;;;;;;6.22;82.47;100159.91;6269372;22;20028;-71
2024/01/01 18:03:34;;;;;;;14.07;3.25;;;;;;;6.20;83.35;100174.50;6240145;22;19914;-70
2024/01/01 18:06:01;;;;;;;15.77;3.95;;;;;;;6.01;85.21;100170.56;6300615;22;20031;-70
2024/01/01 18:08:28;;;;;;;16.52;3.85;;;;;;;5.81;86.83;100171.25;6299062;22;20038;-70
2024/01/01 18:10:55;;;;;;;17.85;4.93;;;;;;;5.59;87.95;100174.72;6298570;22;20031;-71
2024/01/01 18:15:59;;;;;;;15.73;4.57;;;;;;;5.52;88.55;100170.78;6211112;22;20008;-67
2024/01/01 18:18:25;;;;;;;22.30;4.50;;;;;;;5.52;88.35;100178.88;6248591;22;20020;-65
2024/01/01 18:20:52;;;;;;;20.13;5.70;;;;;;;5.56;88.24;100174.94;6275762;22;20031;-65
2024/01/01 18:23:19;;;;;;;17.92;4.55;;;;;;;5.43;89.04;100174.19;6275837;22;20074;-65
2024/01/01 18:25:46;;;;;;;23.65;4.97;;;;;;;5.43;89.27;100177.72;6277975;22;20042;-65
2024/01/01 18:28:13;;;;;;;17.67;4.30;;;;;;;5.31;89.80;100180.47;6276961;22;20045;-66
2024/01/01 18:30:39;;;;;;;17.05;4.72;;;;;;;5.26;90.52;100179.00;6277303;22;20012;-66
2024/01/01 18:33:06;;;;;;;19.13;4.72;;;;;;;5.37;89.48;100180.00;6275725;22;20030;-67
2024/01/01 18:35:33;;;;;;;16.08;4.35;;;;;;;5.40;89.59;100180.63;6275866;22;20450;-67
2024/01/01 18:38:00;;;;;;;14.95;4.60;;;;;;;5.52;88.58;100181.56;6277390;22;20331;-64
2024/01/01 18:40:27;;;;;;;14.63;4.07;;;;;;;5.49;88.34;100179.94;6276774;22;20019;-65
2024/01/01 18:42:54;;;;;;;12.07;3.53;;;;;;;5.42;88.88;100185.88;6275758;22;20050;-65
2024/01/01 18:45:20;;;;;;;14.30;3.17;;;;;;;5.48;88.21;100182.75;6274198;22;20027;-66
2024/01/01 18:47:47;;;;;;;16.10;3.72;;;;;;;5.43;88.97;100185.78;6276237;22;20016;-67
2024/01/01 18:50:14;;;;;;;20.27;4.80;;;;;;;5.25;89.67;100182.66;6273563;22;20034;-68
2024/01/01 18:52:42;;;;;;;10.48;3.72;;;;;;;5.12;90.03;100186.34;6276459;22;20051;-66
2024/01/01 18:55:09;;;;;;;15.10;3.97;;;;;;;5.11;90.42;100190.88;6275729;22;20476;-65
2024/01/01 18:57:36;;;;;;;11.88;3.55;;;;;;;5.24;89.73;100180.94;6249729;22;20016;-66
2024/01/01 19:00:06;;;;;;;13.30;3.55;;;;;;;5.25;89.60;100190.72;6274990;22;20019;-66
2024/01/01 19:02:32;;;;;;;17.58;4.22;;;;;;;5.35;88.87;100192.72;6278830;22;20077;-66
2024/01/01 19:04:59;;;;;;;13.30;4.18;;;;;;;5.20;89.59;100182.13;6279018;22;20024;-65
2024/01/01 19:07:26;;;;;;;14.30;3.70;;;;;;;5.15;90.24;100186.16;6278865;22;20075;-66
2024/01/01 19:09:54;;;;;;;15.43;3.83;;;;;;;5.22;90.04;100188.25;6277948;22;20413;-66
2024/01/01 19:12:21;;;;;;;18.02;3.88;;;;;;;5.17;89.88;100192.25;6277416;22;20409;-67
2024/01/01 19:14:48;;;;;;;20.15;4.53;;;;;;;5.13;90.58;100185.38;6277668;22;20077;-67
2024/01/01 19:17:14;;;;;;;18.15;5.10;;;;;;;5.27;89.60;100183.41;6276032;22;20023;-65
2024/01/01 19:19:41;;;;;;;15.85;4.10;;;;;;;5.13;90.21;100188.94;6278553;22;20024;-66
2024/01/01 19:22:08;;;;;;;20.17;4.32;;;;;;;4.98;90.76;100193.63;6275103;22;20813;-66
2024/01/01 19:24:34;;;;;;;17.98;5.10;;;;;;;5.00;90.53;100198.88;6277853;22;20019;-67
2024/01/01 19:27:01;;;;;;;18.25;5.72;;;;;;;5.08;90.04;100195.63;6279734;22;20054;-65
2024/01/01 19:29:27;;;;;;;23.50;8.05;;;;;;;4.96;90.76;100197.41;6279473;22;20020;-64
2024/01/01 19:31:54;;;;;;;19.80;5.43;;;;;;;4.91;90.83;100199.56;6279709;22;20500;-67
2024/01/01 19:34:20;;;;;;;16.67;4.90;;;;;;;5.05;90.13;100202.09;6278202;22;20082;-66
2024/01/01 19:36:47;;;;;;;17.92;3.97;;;;;;;4.98;90.15;100201.69;6276935;22;20069;-66
2024/01/01 19:39:14;;;;;;;15.25;3.38;;;;;;;4.96;90.70;100208.16;6277212;22;20027;-66
2024/01/01 19:41:47;;;;;;;13.55;3.92;;;;;;;4.91;90.98;100202.25;6280521;22;20020;-67
2024/01/01 19:44:17;;;;;;;16.92;3.85;;;;;;;4.97;90.29;100208.03;6279351;22;20079;-69
2024/01/01 19:46:43;;;;;;;13.15;3.22;;;;;;;5.00;90.84;100209.63;6278879;22;20028;-67
2024/01/01 19:49:10;;;;;;;12.35;3.35;;;;;;;5.02;90.94;100213.06;6276428;22;20024;-67
2024/01/01 19:51:39;;;;;;;10.38;3.33;;;;;;;5.07;90.31;100213.59;6278452;22;20026;-65
2024/01/01 19:54:06;;;;;;;12.25;3.58;;;;;;;4.90;90.55;100209.44;6277549;22;20024;-67
2024/01/01 19:56:33;;;;;;;12.30;3.35;;;;;;;5.22;89.93;100208.91;6279441;22;20024;-65
2024/01/01 19:59:00;;;;;;;14.35;3.67;;;;;;;5.14;90.03;100212.19;6279324;22;20023;-65
2024/01/01 20:01:26;;;;;;;17.77;4.65;;;;;;;5.26;89.26;100211.25;6277533;22;20054;-65
2024/01/01 20:03:54;;;;;;;15.00;4.45;;;;;;;5.16;89.96;100209.38;6277794;22;20024;-67
2024/01/01 20:06:20;;;;;;;16.83;4.63;;;;;;;5.31;89.09;100213.59;6277421;22;20357;-66
2024/01/01 20:08:47;;;;;;;18.17;6.28;;;;;;;5.28;88.99;100214.69;6276207;22;20008;-67
2024/01/01 20:11:22;;;;;;;17.70;5.00;;;;;;;5.32;88.88;100211.75;6278409;22;20102;-66
2024/01/01 20:13:50;;;;;;;12.80;4.43;;;;;;;5.28;88.71;100209.31;6279431;22;20119;-66
2024/01/01 20:16:27;;;;;;;15.00;3.17;;;;;;;5.28;88.65;100214.69;6277533;22;20023;-67
2024/01/01 20:18:54;;;;;;;11.68;3.75;;;;;;;5.25;88.36;100220.31;6278789;22;20028;-65
2024/01/01 20:21:24;;;;;;;11.27;3.03;;;;;;;5.29;88.71;100220.91;6277731;22;20031;-66
2024/01/01 20:23:51;;;;;;;14.82;3.70;;;;;;;5.29;88.17;100219.09;6278138;22;20024;-65
2024/01/01 20:26:25;;;;;;;9.48;3.17;;;;;;;5.44;87.69;100218.94;6277187;22;20023;-67
2024/01/01 20:28:56;;;;;;;18.83;8.38;;;;;;;5.31;88.19;100215.41;6277662;22;20058;-67
2024/01/01 20:31:25;;;;;;;16.83;6.65;;;;;;;5.22;88.72;100223.19;6279283;22;20016;-68
2024/01/01 20:33:53;;;;;;;15.60;4.53;;;;;;;5.33;88.38;100224.22;6279714;22;20020;-67
2024/01/01 20:36:24;;;;;;;13.27;3.55;;;;;;;5.45;87.20;100223.34;6277272;22;20020;-66
2024/01/01 20:38:52;;;;;;;12.45;4.05;;;;;;;5.42;87.29;100232.50;6278246;22;20026;-66
2024/01/01 20:41:21;;;;;;;8.15;2.92;;;;;;;5.28;88.30;100230.81;6277925;22;20023;-66
2024/01/01 20:43:48;;;;;;;11.48;4.03;;;;;;;5.29;88.19;100232.53;6278953;22;20019;-66
2024/01/01 20:46:15;;;;;;;10.43;3.75;;;;;;;5.23;88.56;100232.97;6277549;22;20023;-65
2024/01/01 20:48:42;;;;;;;8.43;2.92;;;;;;;5.13;88.62;100236.47;6278595;22;20281;-68
2024/01/01 20:51:10;;;;;;;10.70;2.58;;;;;;;5.32;88.21;100223.38;6276518;22;20493;-66
2024/01/01 20:53:37;;;;;;;14.07;3.08;;;;;;;5.37;87.17;100231.13;6277575;22;20012;-65
2024/01/01 20:56:08;;;;;;;9.35;2.90;;;;;;;5.42;87.18;100226.22;6276575;22;20085;-66
2024/01/01 20:58:35;;;;;;;14.73;3.25;;;;;;;5.30;87.97;100228.00;6276390;22;20016;-66
2024/01/01 21:01:02;;;;;;;8.93;2.88;;;;;;;5.23;88.12;100235.66;6278165;22;20473;-65
2024/01/01 21:03:35;;;;;;;10.43;3.10;;;;;;;5.35;87.62;100243.81;6276584;22;20019;-67
2024/01/01 21:06:05;;;;;;;11.93;2.70;;;;;;;5.29;87.70;100235.22;6276975;22;20339;-65
2024/01/01 21:08:32;;;;;;;5.50;1.98;;;;;;;5.07;88.97;100243.16;6276701;22;20016;-66
2024/01/01 21:11:00;;;;;;;5.63;2.55;;;;;;;5.11;88.61;100239.25;6277170;22;20050;-65
2024/01/01 21:13:27;;;;;;;12.50;3.20;;;;;;;5.19;88.05;100242.25;6275263;22;20020;-64
2024/01/01 21:15:55;;;;;;;11.25;3.05;;;;;;;5.29;87.48;100237.91;6275993;22;20041;-65
2024/01/01 21:18:24;;;;;;;9.77;3.00;;;;;;;5.27;87.33;100239.84;6276298;22;20016;-66
2024/01/01 21:20:50;;;;;;;11.63;2.92;;;;;;;5.28;86.99;100241.56;6276522;22;20019;-66
2024/01/01 21:23:17;;;;;;;6.97;2.42;;;;;;;5.38;86.59;100240.91;6275617;22;20362;-65
2024/01/01 21:25:44;;;;;;;12.18;3.38;;;;;;;5.39;86.69;100239.91;6277510;22;20358;-66
2024/01/01 21:28:11;;;;;;;9.05;2.72;;;;;;;5.46;86.25;100239.34;6275767;22;20370;-66
2024/01/01 21:30:37;;;;;;;8.05;2.55;;;;;;;5.42;86.56;100247.75;6276991;22;20073;-67
2024/01/01 21:33:04;;;;;;;6.03;2.47;;;;;;;5.31;87.11;100239.63;6248756;22;20096;-66
2024/01/01 21:35:31;;;;;;;9.93;2.45;;;;;;;5.37;86.43;100245.41;6278653;22;20089;-66
2024/01/01 21:38:00;;;;;;;7.40;2.40;;;;;;;5.53;85.24;100239.75;6275869;22;20094;-66
2024/01/01 21:40:27;;;;;;;6.63;2.13;;;;;;;5.52;84.84;100243.44;6275044;22;20354;-64
2024/01/01 21:42:56;;;;;;;6.90;2.10;;;;;;;5.51;84.81;100244.38;6273978;22;20030;-65
2024/01/01 21:45:25;;;;;;;8.55;2.38;;;;;;;5.51;85.01;100242.56;6274780;22;20481;-67
2024/01/01 21:47:51;;;;;;;7.13;2.22;;;;;;;5.47;85.26;100240.22;6276888;22;20023;-65
2024/01/01 21:50:18;;;;;;;11.45;2.42;;;;;;;5.50;84.45;100239.97;6273557;22;20020;-65
2024/01/01 21:52:45;;;;;;;10.02;2.33;;;;;;;5.53;83.98;100245.13;6276581;22;20454;-66
2024/01/01 21:55:15;;;;;;;7.18;2.03;;;;;;;5.38;84.99;100251.66;6275079;22;20024;-67
2024/01/01 21:57:45;;;;;;;5.88;1.98;;;;;;;5.40;84.93;100255.06;6276630;22;20484;-65
2024/01/01 22:00:13;;;;;;;8.27;2.13;;;;;;;5.49;84.39;100259.78;6275663;22;20470;-66
2024/01/01 22:02:41;;;;;;;13.30;2.38;;;;;;;5.45;84.26;100258.28;6278091;22;20027;-66
2024/01/01 22:05:09;;;;;;;9.02;2.15;;;;;;;5.46;84.17;100258.19;6274893;22;20602;-65
2024/01/01 22:07:36;;;;;;;5.93;2.00;;;;;;;5.47;84.17;100259.03;6277563;22;20040;-66
2024/01/01 22:10:03;;;;;;;7.38;2.33;;;;;;;5.43;84.35;100262.94;6276298;22;20030;-65
2024/01/01 22:12:30;;;;;;;7.47;2.95;;;;;;;5.42;84.51;100267.47;6279669;22;20468;-64
2024/01/01 22:14:57;;;;;;;6.53;2.08;;;;;;;5.35;84.53;100262.66;6276659;22;20024;-65
2024/01/01 22:17:23;;;;;;;9.75;2.17;;;;;;;5.42;84.43;100263.88;6276471;22;20054;-65
2024/01/01 22:19:50;;;;;;;5.95;1.85;;;;;;;5.44;84.04;100256.59;6277583;22;20026;-66
2024/01/01 22:22:16;;;;;;;6.07;1.70;;;;;;;5.37;84.15;100258.84;6275407;22;20464;-65
2024/01/01 22:24:43;;;;;;;7.72;2.47;;;;;;;5.33;84.60;100261.88;6249856;22;20027;-64
2024/01/01 22:27:10;;;;;;;8.50;2.28;;;;;;;5.48;83.75;100263.44;6250035;22;20031;-65
2024/01/01 22:29:36;;;;;;;7.65;2.10;;;;;;;5.40;84.34;100258.63;6278214;22;20019;-66
2024/01/01 22:32:03;;;;;;;6.80;1.73;;;;;;;5.23;84.90;100259.84;6250276;22;20020;-64
2024/01/01 22:34:30;;;;;;;6.45;2.00;;;;;;;5.34;84.25;100258.25;6276877;22;20012;-64
2024/01/01 22:36:57;;;;;;;10.80;2.33;;;;;;;5.42;84.26;100263.88;6276919;22;20350;-64